Terminal Aerodrome Forecast
Issued by NWS

Home | Current Version | Previous Version | Graphics & Text | Print | Product List | Glossary On
Versions: 1 2 3 4 5 6 7 8 9 10 11 12 13 14 15
000
FTUS43 KABR 281300 AAB
TAFMBG
TAF AMD
KMBG 281316Z 2813/2912 35005KT P6SM FEW001
     FM281400 02006KT P6SM SKC
     FM290200 12006KT P6SM SKC=

USA.gov is the U.S. government's official web portal to all federal, state and local government web resources and services.